Time;durP1;ratioP1;P1;durP2;ratioP2;P2;SDS_P1;SDS_P2;PMS_P1;PMS_P2;Temp;Humidity;BMP_temperature;BMP_pressure;BME280_temperature;BME280_humidity;BME280_pressure;Samples;Min_cycle;Max_cycle;Signal;HPM_P1;HPM_P2
2022/06/08 00:01:55;;;;;;;8.03;7.07;;;10.20;99.90;;;;;;5002240;28;91109;-34
2022/06/08 00:04:23;;;;;;;10.98;7.55;;;10.20;99.90;;;;;;5002822;28;89035;-36
2022/06/08 00:06:50;;;;;;;7.40;6.65;;;10.20;99.90;;;;;;5001621;28;89880;-34
2022/06/08 00:09:16;;;;;;;11.73;7.68;;;10.20;99.90;;;;;;5001326;28;89786;-36
2022/06/08 00:11:42;;;;;;;14.48;7.20;;;10.20;99.90;;;;;;5001599;28;89325;-35
2022/06/08 00:14:07;;;;;;;7.45;6.63;;;10.30;99.90;;;;;;5001925;28;88528;-37
2022/06/08 00:16:33;;;;;;;7.95;7.15;;;10.30;99.90;;;;;;5002255;28;90330;-35
2022/06/08 00:18:58;;;;;;;9.20;7.35;;;10.30;99.90;;;;;;5001670;28;90824;-38
2022/06/08 00:21:24;;;;;;;10.50;8.45;;;10.30;99.90;;;;;;5000938;28;89770;-35
2022/06/08 00:23:50;;;;;;;11.00;7.80;;;10.30;99.90;;;;;;5001720;28;88732;-34
2022/06/08 00:26:17;;;;;;;12.38;8.25;;;10.30;99.90;;;;;;5001442;28;89169;-34
2022/06/08 00:28:42;;;;;;;9.60;8.45;;;10.30;99.90;;;;;;5001114;28;89259;-34
2022/06/08 00:31:08;;;;;;;12.60;9.07;;;10.20;99.90;;;;;;5001727;28;89603;-33
2022/06/08 00:33:34;;;;;;;9.68;8.02;;;10.20;99.90;;;;;;5000874;28;89314;-38
2022/06/08 00:36:00;;;;;;;8.68;7.35;;;10.20;99.90;;;;;;5002385;28;90422;-35
2022/06/08 00:38:26;;;;;;;8.27;7.45;;;10.20;99.90;;;;;;5000884;28;89858;-36
2022/06/08 00:41:12;;;;;;;9.15;8.23;;;10.10;99.90;;;;;;5001183;28;90262;-35
2022/06/08 00:43:38;;;;;;;8.63;7.72;;;10.20;99.90;;;;;;4990027;28;89179;-35
2022/06/08 00:46:05;;;;;;;14.85;8.63;;;10.30;99.90;;;;;;5000916;28;89912;-34
2022/06/08 00:48:35;;;;;;;13.48;9.05;;;10.30;99.90;;;;;;5000931;28;90101;-36
2022/06/08 00:51:01;;;;;;;9.52;8.23;;;10.40;99.90;;;;;;5001032;28;90504;-37
2022/06/08 00:53:32;;;;;;;10.77;7.85;;;10.40;99.90;;;;;;5001472;28;87719;-34
2022/06/08 00:56:03;;;;;;;9.88;8.07;;;10.40;99.90;;;;;;5033713;22;89430;-35
2022/06/08 00:58:31;;;;;;;8.73;7.78;;;10.40;99.90;;;;;;5001481;28;89626;-33
2022/06/08 01:00:58;;;;;;;12.60;7.70;;;10.40;99.90;;;;;;5001760;28;89160;-35
2022/06/08 01:03:25;;;;;;;11.50;8.50;;;10.40;99.90;;;;;;5001615;28;88981;-36
2022/06/08 01:06:12;;;;;;;8.77;6.93;;;10.50;99.90;;;;;;5000705;28;90376;-33
2022/06/08 01:08:45;;;;;;;8.48;7.63;;;10.50;99.90;;;;;;5000528;28;89580;-37
2022/06/08 01:11:25;;;;;;;8.32;7.50;;;10.60;99.90;;;;;;5000975;28;90263;-34
2022/06/08 01:13:54;;;;;;;10.88;7.78;;;10.60;99.90;;;;;;4988996;28;88138;-35
2022/06/08 01:16:19;;;;;;;;;;;10.80;99.90;;;;;;5001555;28;90314;-34
2022/06/08 01:18:46;;;;;;;9.98;8.95;;;10.80;99.90;;;;;;5001847;28;90020;-35
2022/06/08 01:21:20;;;;;;;10.98;8.10;;;10.80;99.90;;;;;;5001301;28;89284;-33
2022/06/08 01:23:52;;;;;;;9.13;7.38;;;10.80;99.90;;;;;;5000292;28;88263;-35
2022/06/08 01:26:22;;;;;;;11.63;9.70;;;10.90;99.90;;;;;;5000646;28;90336;-36
2022/06/08 01:29:13;;;;;;;17.02;9.15;;;10.90;99.90;;;;;;5000065;28;89737;-34
2022/06/08 01:32:16;;;;;;;10.30;8.30;;;11.00;99.90;;;;;;5000886;28;89365;-35
2022/06/08 01:34:44;;;;;;;8.52;7.65;;;11.00;99.90;;;;;;4999833;28;87902;-36
2022/06/08 01:37:22;;;;;;;9.07;7.97;;;11.10;99.90;;;;;;5000487;28;90323;-33
2022/06/08 01:40:16;;;;;;;12.68;9.88;;;11.10;99.90;;;;;;4999898;28;90795;-33
2022/06/08 01:43:01;;;;;;;13.32;10.15;;;11.10;99.90;;;;;;4987678;28;91589;-34
2022/06/08 01:45:45;;;;;;;15.18;10.07;;;11.20;99.90;;;;;;4999700;28;88394;-36
2022/06/08 01:48:29;;;;;;;17.33;9.38;;;11.20;99.90;;;;;;5000266;28;91045;-36
2022/06/08 01:51:16;;;;;;;13.98;10.45;;;11.30;99.90;;;;;;4999442;28;88528;-37
2022/06/08 01:54:00;;;;;;;13.73;10.60;;;11.30;99.90;;;;;;4999123;28;89387;-34
2022/06/08 01:56:30;;;;;;;13.50;11.02;;;11.40;99.90;;;;;;4988140;28;89532;-34
2022/06/08 01:59:23;;;;;;;13.30;10.57;;;11.40;99.90;;;;;;5000001;28;88874;-35
2022/06/08 02:02:18;;;;;;;17.25;12.13;;;11.40;99.90;;;;;;4986236;28;89634;-36
2022/06/08 02:04:49;;;;;;;22.70;13.65;;;11.40;99.90;;;;;;4998924;28;88356;-34
2022/06/08 02:07:40;;;;;;;19.80;12.38;;;11.50;99.90;;;;;;4998387;28;90007;-34
2022/06/08 02:10:40;;;;;;;21.73;14.35;;;11.50;99.90;;;;;;4998668;28;90666;-33
2022/06/08 02:13:16;;;;;;;21.17;16.15;;;11.60;99.90;;;;;;4999400;28;90126;-35
2022/06/08 02:15:44;;;;;;;23.33;17.17;;;11.60;99.90;;;;;;4998628;28;90262;-35
2022/06/08 02:18:38;;;;;;;23.48;15.02;;;11.60;99.90;;;;;;4999322;28;88731;-33
2022/06/08 02:21:22;;;;;;;22.08;16.05;;;11.60;99.90;;;;;;4982158;28;90814;-33
2022/06/08 02:23:57;;;;;;;25.50;17.05;;;11.70;99.90;;;;;;4998809;28;92880;-34
2022/06/08 02:26:54;;;;;;;19.55;17.27;;;11.70;99.90;;;;;;4999657;28;88998;-37
2022/06/08 02:29:25;;;;;;;22.33;17.95;;;11.70;99.90;;;;;;4998689;28;88921;-37
2022/06/08 02:32:00;;;;;;;25.38;18.88;;;11.70;99.90;;;;;;4999032;28;89875;-36
2022/06/08 02:34:39;;;;;;;21.33;16.92;;;11.70;99.90;;;;;;4998803;28;91286;-35
2022/06/08 02:37:11;;;;;;;23.27;18.05;;;11.80;99.90;;;;;;5013489;28;90429;-34
2022/06/08 02:39:48;;;;;;;24.80;17.25;;;11.80;99.90;;;;;;4998832;28;87693;-38
2022/06/08 02:42:26;;;;;;;24.85;19.45;;;11.80;99.90;;;;;;4998739;28;89017;-33
2022/06/08 02:44:56;;;;;;;20.58;17.73;;;11.80;99.90;;;;;;4998927;28;90830;-34
2022/06/08 02:47:32;;;;;;;17.35;15.60;;;11.90;99.90;;;;;;4999231;28;89509;-35
2022/06/08 02:50:02;;;;;;;20.70;17.15;;;11.90;99.90;;;;;;4998318;28;88928;-34
2022/06/08 02:52:29;;;;;;;21.48;16.90;;;11.90;99.90;;;;;;4998674;28;90408;-36
2022/06/08 02:54:56;;;;;;;23.15;16.63;;;11.90;99.90;;;;;;4998661;28;88725;-34
2022/06/08 02:57:44;;;;;;;24.95;18.08;;;11.90;99.90;;;;;;4998431;28;89097;-36
2022/06/08 03:00:18;;;;;;;24.73;17.85;;;11.90;99.90;;;;;;4999117;28;87998;-35
2022/06/08 03:02:50;;;;;;;26.98;18.38;;;11.90;99.90;;;;;;4997926;28;90290;-34
2022/06/08 03:05:22;;;;;;;18.55;16.65;;;11.90;99.90;;;;;;4998852;28;89844;-33
2022/06/08 03:08:12;;;;;;;21.17;17.90;;;11.90;99.90;;;;;;4998460;28;89451;-35
2022/06/08 03:10:41;;;;;;;20.58;17.98;;;12.00;99.90;;;;;;4998975;28;88968;-34
2022/06/08 03:13:27;;;;;;;20.13;17.90;;;12.00;99.90;;;;;;4999007;28;90447;-37
2022/06/08 03:16:02;;;;;;;23.45;18.15;;;12.00;99.90;;;;;;4998534;28;89840;-34
2022/06/08 03:18:29;;;;;;;19.40;17.42;;;12.00;99.90;;;;;;4986121;28;89821;-33
2022/06/08 03:20:56;;;;;;;21.85;19.48;;;12.00;99.90;;;;;;5002516;28;87823;-34
2022/06/08 03:23:22;;;;;;;25.10;18.92;;;12.00;99.90;;;;;;5002720;28;91264;-34
2022/06/08 03:25:49;;;;;;;23.45;17.48;;;12.00;99.90;;;;;;5001105;28;90678;-33
2022/06/08 03:28:16;;;;;;;22.20;18.65;;;12.00;99.90;;;;;;5001686;28;90481;-37
2022/06/08 03:30:43;;;;;;;26.67;19.85;;;12.00;99.90;;;;;;5001787;28;87662;-34
2022/06/08 03:33:09;;;;;;;20.90;18.67;;;12.00;99.90;;;;;;5001062;28;90153;-38
2022/06/08 03:35:36;;;;;;;23.50;18.50;;;12.10;99.90;;;;;;5002077;28;89735;-35
2022/06/08 03:38:02;;;;;;;26.23;19.85;;;12.10;99.90;;;;;;5002494;28;88704;-36
2022/06/08 03:40:28;;;;;;;25.33;18.75;;;12.10;99.90;;;;;;5001496;28;89719;-36
2022/06/08 03:42:54;;;;;;;22.67;19.20;;;12.10;99.90;;;;;;5001574;28;90202;-37
2022/06/08 03:45:20;;;;;;;21.60;17.40;;;12.10;99.90;;;;;;5002323;28;89792;-35
2022/06/08 03:47:49;;;;;;;22.90;19.58;;;12.20;99.90;;;;;;5000999;28;90186;-34
2022/06/08 03:50:20;;;;;;;25.55;18.58;;;12.20;99.90;;;;;;5000284;28;88900;-35
2022/06/08 03:52:55;;;;;;;30.30;19.42;;;12.30;99.90;;;;;;5000790;28;89964;-34
2022/06/08 03:55:22;;;;;;;24.67;18.02;;;12.30;99.90;;;;;;5001678;28;89672;-34
2022/06/08 03:57:51;;;;;;;20.85;18.40;;;12.30;99.90;;;;;;5000969;28;89920;-34
2022/06/08 04:00:18;;;;;;;26.90;19.02;;;12.30;99.90;;;;;;5001360;28;89559;-37
2022/06/08 04:02:46;;;;;;;22.75;17.52;;;12.30;99.90;;;;;;5000719;28;90721;-32
2022/06/08 04:05:12;;;;;;;21.30;17.60;;;12.30;99.90;;;;;;5001702;28;89440;-34
2022/06/08 04:07:38;;;;;;;21.95;18.27;;;12.30;99.90;;;;;;5001496;28;90165;-35
2022/06/08 04:10:04;;;;;;;19.98;16.55;;;12.40;99.90;;;;;;5001630;28;88149;-38
2022/06/08 04:12:30;;;;;;;19.65;16.88;;;12.40;99.90;;;;;;5000930;28;89836;-35
2022/06/08 04:14:56;;;;;;;23.63;18.17;;;12.40;99.90;;;;;;5000316;28;90699;-34
2022/06/08 04:17:21;;;;;;;18.42;16.48;;;12.50;99.90;;;;;;5000783;28;90284;-37
2022/06/08 04:19:50;;;;;;;19.05;17.02;;;12.50;99.90;;;;;;5001714;28;89539;-34
2022/06/08 04:22:19;;;;;;;21.52;15.98;;;12.60;99.90;;;;;;5001441;28;92019;-33
2022/06/08 04:24:44;;;;;;;;;;;12.60;99.90;;;;;;5000515;28;89802;-34
2022/06/08 04:27:11;;;;;;;18.27;16.17;;;12.60;99.90;;;;;;5002820;28;88808;-37
2022/06/08 04:29:37;;;;;;;20.25;16.85;;;12.70;99.90;;;;;;5000164;28;89205;-34
2022/06/08 04:32:05;;;;;;;21.63;17.05;;;12.70;99.90;;;;;;5000857;28;90226;-34
2022/06/08 04:34:30;;;;;;;20.65;17.80;;;12.70;99.90;;;;;;5001020;28;90617;-33
2022/06/08 04:36:56;;;;;;;18.75;15.80;;;12.80;99.90;;;;;;5000682;28;89479;-36
2022/06/08 04:39:22;;;;;;;21.05;17.88;;;12.80;99.90;;;;;;5000329;28;89289;-37
2022/06/08 04:41:47;;;;;;;19.23;16.02;;;12.80;99.90;;;;;;5000909;28;90632;-35
2022/06/08 04:44:13;;;;;;;18.63;16.33;;;12.80;99.90;;;;;;5000916;28;90946;-34
2022/06/08 04:46:40;;;;;;;20.30;18.10;;;12.80;99.90;;;;;;5000298;28;90606;-34
2022/06/08 04:49:06;;;;;;;26.67;18.65;;;12.90;99.90;;;;;;5000900;28;88007;-37
2022/06/08 04:51:33;;;;;;;20.80;16.50;;;12.90;99.90;;;;;;5000658;28;90328;-33
2022/06/08 04:53:59;;;;;;;28.30;17.93;;;12.90;99.90;;;;;;5000388;28;89874;-34
2022/06/08 04:56:25;;;;;;;28.75;17.90;;;12.90;99.90;;;;;;5000931;28;89582;-34
2022/06/08 04:58:54;;;;;;;17.67;15.80;;;12.90;99.90;;;;;;4999743;28;88842;-35
2022/06/08 05:01:20;;;;;;;22.67;18.50;;;13.00;99.90;;;;;;5000091;28;89793;-33
2022/06/08 05:03:46;;;;;;;23.08;17.55;;;13.00;99.90;;;;;;4999680;28;90628;-36
2022/06/08 05:06:11;;;;;;;22.25;17.80;;;13.10;99.90;;;;;;5000072;28;90584;-35
2022/06/08 05:08:37;;;;;;;21.75;18.05;;;13.10;99.90;;;;;;5000469;28;88752;-36
2022/06/08 05:11:05;;;;;;;29.25;19.08;;;13.20;99.90;;;;;;5014124;28;92000;-33
2022/06/08 05:13:31;;;;;;;20.40;17.98;;;13.30;99.90;;;;;;4999783;28;89703;-33
2022/06/08 05:15:57;;;;;;;24.50;19.88;;;13.30;99.90;;;;;;5000032;28;89752;-34
2022/06/08 05:18:24;;;;;;;27.83;20.27;;;13.40;99.90;;;;;;5000256;28;89210;-34
2022/06/08 05:20:50;;;;;;;28.45;20.55;;;13.50;99.90;;;;;;4999864;28;91342;-36
2022/06/08 05:23:20;;;;;;;22.50;20.02;;;13.50;99.90;;;;;;4999705;28;89221;-38
2022/06/08 05:25:46;;;;;;;26.85;20.17;;;13.60;99.90;;;;;;4999675;28;90078;-36
2022/06/08 05:28:13;;;;;;;24.30;20.05;;;13.70;99.90;;;;;;5000094;28;89734;-34
2022/06/08 05:30:39;;;;;;;23.15;19.63;;;13.70;99.90;;;;;;4987763;28;90873;-34
2022/06/08 05:33:06;;;;;;;24.70;21.67;;;13.70;99.90;;;;;;4993896;28;90063;-36
2022/06/08 05:35:32;;;;;;;26.00;21.83;;;13.80;99.90;;;;;;5000261;28;88980;-33
2022/06/08 05:37:57;;;;;;;27.70;21.40;;;13.80;99.90;;;;;;4998743;28;89626;-34
2022/06/08 05:40:24;;;;;;;26.00;20.52;;;13.80;99.90;;;;;;4999578;28;89502;-36
2022/06/08 05:42:49;;;;;;;27.17;21.77;;;13.90;99.90;;;;;;4997235;28;89132;-35
2022/06/08 05:45:21;;;;;;;23.35;20.83;;;14.00;99.90;;;;;;4979050;28;90562;-37
2022/06/08 05:47:48;;;;;;;27.80;21.45;;;14.10;99.90;;;;;;4989488;28;89538;-33
2022/06/08 05:50:14;;;;;;;26.00;21.42;;;14.10;99.90;;;;;;4982744;28;89478;-35
2022/06/08 05:52:40;;;;;;;30.38;20.75;;;14.20;99.90;;;;;;4987222;28;90799;-34
2022/06/08 05:55:07;;;;;;;26.88;18.77;;;14.30;99.90;;;;;;4999575;28;89664;-34
2022/06/08 05:57:32;;;;;;;24.23;21.35;;;14.30;99.90;;;;;;4999071;28;89022;-37
2022/06/08 05:59:58;;;;;;;20.90;18.67;;;14.40;99.90;;;;;;4999060;28;90149;-35
2022/06/08 06:02:24;;;;;;;24.52;19.05;;;14.50;99.90;;;;;;4999271;28;89538;-35
2022/06/08 06:04:49;;;;;;;24.55;18.73;;;14.60;99.90;;;;;;4999167;28;89835;-35
2022/06/08 06:07:16;;;;;;;29.17;19.48;;;14.70;99.90;;;;;;4999752;28;88188;-34
2022/06/08 06:09:42;;;;;;;21.52;18.95;;;14.80;99.90;;;;;;4999656;28;90832;-35
2022/06/08 06:12:09;;;;;;;21.17;18.50;;;14.80;99.90;;;;;;4999244;28;90492;-34
2022/06/08 06:14:35;;;;;;;22.90;18.65;;;14.90;99.90;;;;;;4998415;28;89527;-38
2022/06/08 06:17:01;;;;;;;21.17;16.85;;;14.90;99.90;;;;;;4999097;28;89306;-36
2022/06/08 06:19:26;;;;;;;22.88;17.15;;;15.10;99.90;;;;;;4998957;28;90445;-34
2022/06/08 06:21:53;;;;;;;19.52;17.38;;;15.30;99.90;;;;;;4998772;28;89853;-33
2022/06/08 06:24:19;;;;;;;24.55;17.48;;;15.50;99.90;;;;;;4999374;28;89723;-34
2022/06/08 06:26:45;;;;;;;18.27;16.33;;;15.70;99.90;;;;;;4998604;28;87924;-34
2022/06/08 06:29:10;;;;;;;20.52;17.40;;;15.90;99.90;;;;;;4999532;28;91101;-35
2022/06/08 06:31:49;;;;;;;23.35;16.50;;;16.20;99.90;;;;;;4998643;28;90063;-34
2022/06/08 06:34:18;;;;;;;18.98;15.13;;;16.10;99.90;;;;;;4999304;28;90342;-35
2022/06/08 06:36:44;;;;;;;;;;;16.20;99.90;;;;;;4999464;28;89870;-33
2022/06/08 06:39:10;;;;;;;21.40;17.63;;;16.40;99.90;;;;;;5000946;28;91093;-37
2022/06/08 06:41:36;;;;;;;16.63;13.90;;;16.50;99.90;;;;;;4998553;28;90133;-33
2022/06/08 06:44:02;;;;;;;17.17;14.23;;;16.80;99.90;;;;;;4998637;28;90555;-35
2022/06/08 06:46:27;;;;;;;18.80;14.65;;;16.90;99.90;;;;;;4999271;28;89204;-36
2022/06/08 06:48:53;;;;;;;20.27;14.57;;;17.40;99.90;;;;;;4997765;28;90506;-37
2022/06/08 06:51:19;;;;;;;17.15;15.35;;;17.50;99.90;;;;;;4998980;28;90888;-37
2022/06/08 06:53:44;;;;;;;18.83;15.15;;;17.90;99.90;;;;;;4997235;28;89937;-35
2022/06/08 06:56:10;;;;;;;15.85;14.18;;;17.80;99.90;;;;;;4998060;28;88127;-35
2022/06/08 06:58:36;;;;;;;18.58;14.05;;;17.90;99.90;;;;;;4997291;28;90349;-36
2022/06/08 07:01:04;;;;;;;16.13;13.60;;;18.30;99.90;;;;;;4995371;28;89513;-36
2022/06/08 07:03:30;;;;;;;15.00;13.20;;;18.50;99.90;;;;;;4995620;28;89713;-37
2022/06/08 07:05:56;;;;;;;17.98;13.98;;;18.60;99.90;;;;;;4996133;28;89709;-34
2022/06/08 07:08:21;;;;;;;15.05;12.38;;;18.90;99.90;;;;;;4996910;28;89983;-35
2022/06/08 07:11:32;;;;;;;16.67;13.50;;;19.10;99.90;;;;;;5000090;28;88894;-38
2022/06/08 07:13:33;;;;;;;16.90;12.35;;;19.20;99.90;;;;;;4994855;28;90110;-35
2022/06/08 07:15:59;;;;;;;12.20;10.80;;;19.20;99.90;;;;;;5004191;28;88113;-36
2022/06/08 07:18:25;;;;;;;12.25;10.95;;;19.40;99.90;;;;;;5002875;28;89921;-35
2022/06/08 07:20:51;;;;;;;15.55;11.18;;;19.60;99.90;;;;;;5005295;28;88775;-35
2022/06/08 07:23:17;;;;;;;14.55;9.40;;;19.80;99.90;;;;;;5002674;28;89835;-39
2022/06/08 07:25:42;;;;;;;13.27;9.07;;;19.90;99.90;;;;;;5002313;28;89705;-35
2022/06/08 07:28:08;;;;;;;13.15;9.32;;;19.90;99.90;;;;;;5002887;28;90561;-33
2022/06/08 07:30:33;;;;;;;12.10;10.80;;;19.80;99.90;;;;;;5001924;28;90649;-39
2022/06/08 07:32:59;;;;;;;12.25;9.90;;;19.60;99.90;;;;;;4998668;28;90686;-34
2022/06/08 07:35:25;;;;;;;12.43;10.45;;;20.00;99.90;;;;;;5000396;28;89025;-39
2022/06/08 07:37:51;;;;;;;10.93;9.90;;;20.00;99.90;;;;;;4998464;28;91459;-35
2022/06/08 07:40:17;;;;;;;10.10;9.07;;;20.00;99.90;;;;;;4996345;28;90029;-34
2022/06/08 07:42:42;;;;;;;12.00;10.50;;;20.00;99.90;;;;;;4996026;28;89616;-35
2022/06/08 07:45:10;;;;;;;13.10;9.45;;;20.00;99.90;;;;;;4994786;28;88002;-37
2022/06/08 07:49:36;;;;;;;;;;;19.90;99.90;;;;;;4988233;28;90272;-37
2022/06/08 07:50:22;;;;;;;12.63;8.95;;;19.80;99.90;;;;;;4995130;28;89867;-36
2022/06/08 07:52:48;;;;;;;9.82;7.82;;;20.00;99.90;;;;;;4783367;27;89774;-34
2022/06/08 07:55:13;;;;;;;8.18;7.40;;;20.10;99.90;;;;;;4948165;28;89278;-36
2022/06/08 07:57:39;;;;;;;8.10;7.18;;;20.20;99.90;;;;;;4996435;28;90103;-34
2022/06/08 08:00:06;;;;;;;7.43;6.63;;;20.30;99.90;;;;;;4996041;28;89933;-32
2022/06/08 08:02:31;;;;;;;7.80;7.05;;;20.40;99.90;;;;;;4996056;28;89467;-34
2022/06/08 08:04:57;;;;;;;9.60;7.50;;;20.20;99.90;;;;;;4998876;28;89261;-35
2022/06/08 08:07:22;;;;;;;8.77;7.82;;;20.30;99.90;;;;;;4999939;28;89974;-35
2022/06/08 08:09:49;;;;;;;8.48;5.78;;;20.30;99.90;;;;;;4999408;28;88925;-34
2022/06/08 08:12:16;;;;;;;8.90;7.93;;;20.30;99.90;;;;;;4998730;28;89922;-36
2022/06/08 08:14:41;;;;;;;6.88;6.18;;;20.40;99.90;;;;;;4999471;28;88860;-37
2022/06/08 08:17:08;;;;;;;6.45;5.15;;;20.50;99.90;;;;;;4999857;28;90385;-34
2022/06/08 08:19:34;;;;;;;6.60;5.45;;;20.60;99.90;;;;;;4998991;28;89509;-36
2022/06/08 08:22:00;;;;;;;7.60;6.70;;;20.70;99.90;;;;;;5000593;28;90826;-37
2022/06/08 08:24:25;;;;;;;6.82;5.97;;;20.50;99.90;;;;;;4999172;28;88245;-35
2022/06/08 08:26:51;;;;;;;5.88;4.80;;;20.90;99.90;;;;;;4999402;28;91579;-36
2022/06/08 08:29:18;;;;;;;7.32;5.75;;;21.00;99.90;;;;;;4989455;28;89675;-36
2022/06/08 08:31:44;;;;;;;6.27;5.47;;;21.40;99.90;;;;;;4996466;28;88616;-37
2022/06/08 08:34:10;;;;;;;7.45;5.65;;;21.20;99.90;;;;;;4999954;28;89051;-38
2022/06/08 08:36:36;;;;;;;6.82;5.65;;;21.30;99.90;;;;;;4999989;28;90360;-36
2022/06/08 08:39:03;;;;;;;4.97;4.32;;;21.60;99.90;;;;;;4998956;28;89789;-35
2022/06/08 08:44:55;;;;;;;5.78;5.18;;;21.60;99.90;;;;;;4999531;28;88899;-35
2022/06/08 08:47:34;;;;;;;3.90;3.60;;;21.40;99.90;;;;;;4998383;28;90220;-35
2022/06/08 08:50:03;;;;;;;4.35;3.60;;;21.70;99.90;;;;;;4999101;28;89861;-37
2022/06/08 08:52:53;;;;;;;3.50;3.17;;;22.00;99.90;;;;;;5001050;28;90060;-36
2022/06/08 08:55:29;;;;;;;2.92;2.63;;;21.80;99.90;;;;;;4997943;28;90395;-36
2022/06/08 08:57:57;;;;;;;6.32;3.45;;;21.90;99.90;;;;;;4998754;28;90227;-37
2022/06/08 09:00:50;;;;;;;2.90;2.70;;;21.60;99.90;;;;;;5000149;28;89629;-36
2022/06/08 09:03:29;;;;;;;3.28;2.80;;;21.00;99.90;;;;;;4998150;28;89113;-35
2022/06/08 09:05:59;;;;;;;2.85;2.65;;;21.10;99.90;;;;;;5000358;28;88457;-34
2022/06/08 09:08:26;;;;;;;2.72;2.53;;;21.20;99.90;;;;;;5001063;28;90254;-35
2022/06/08 09:10:56;;;;;;;3.08;2.88;;;21.20;99.90;;;;;;4999485;28;91714;-36
2022/06/08 09:13:37;;;;;;;5.30;3.10;;;21.70;99.90;;;;;;5000160;28;90473;-37
2022/06/08 09:16:03;;;;;;;3.75;2.90;;;21.60;99.90;;;;;;5000701;28;88788;-33
2022/06/08 09:18:33;;;;;;;4.25;2.78;;;21.30;99.90;;;;;;5001058;28;90166;-38
2022/06/08 09:21:17;;;;;;;3.00;2.70;;;21.70;99.90;;;;;;5000618;28;89318;-35
2022/06/08 09:23:43;;;;;;;3.97;1.90;;;21.60;99.90;;;;;;4999667;28;113429;-35
2022/06/08 09:26:15;;;;;;;2.85;2.25;;;21.60;99.90;;;;;;5001293;28;90338;-33
2022/06/08 09:28:42;;;;;;;2.30;2.10;;;21.60;99.90;;;;;;5001033;28;90325;-36
2022/06/08 09:31:29;;;;;;;4.35;2.17;;;22.00;99.90;;;;;;5000807;28;91590;-34
2022/06/08 09:34:19;;;;;;;3.95;3.53;;;21.80;99.90;;;;;;4999781;28;89023;-35
2022/06/08 09:36:45;;;;;;;5.18;3.92;;;21.60;99.90;;;;;;5000071;28;89377;-38
2022/06/08 09:39:18;;;;;;;3.72;3.42;;;21.40;99.90;;;;;;4999897;28;89313;-35
2022/06/08 09:41:51;;;;;;;5.32;3.88;;;21.40;99.90;;;;;;5000277;28;89907;-36
2022/06/08 09:44:22;;;;;;;8.38;4.00;;;22.00;99.90;;;;;;5000483;28;90493;-37
2022/06/08 09:53:12;;;;;;;4.55;3.13;;;22.10;99.90;;;;;;5000513;28;89722;-34
2022/06/08 09:55:55;;;;;;;2.40;2.20;;;21.70;99.90;;;;;;5000269;28;88628;-37
2022/06/08 09:58:55;;;;;;;3.42;3.00;;;21.90;99.90;;;;;;5000283;28;88506;-37
2022/06/08 10:01:21;;;;;;;5.05;3.10;;;21.80;99.90;;;;;;4999667;28;90295;-36
2022/06/08 10:04:17;;;;;;;4.55;3.03;;;21.60;99.90;;;;;;4998907;28;90677;-37
2022/06/08 10:07:18;;;;;;;3.92;3.47;;;21.40;99.90;;;;;;5000206;28;90432;-35
2022/06/08 10:10:06;;;;;;;3.60;3.28;;;21.20;99.90;;;;;;4999808;28;88796;-36
2022/06/08 10:12:38;;;;;;;5.38;4.22;;;21.00;99.90;;;;;;4999552;28;90223;-38
2022/06/08 10:15:25;;;;;;;5.80;4.32;;;21.50;99.90;;;;;;4999103;28;89988;-37
2022/06/08 10:17:58;;;;;;;4.05;3.13;;;21.70;99.90;;;;;;4999562;28;89431;-34
2022/06/08 10:20:30;;;;;;;5.35;3.78;;;21.60;99.90;;;;;;5000559;28;88923;-35
2022/06/08 10:23:01;;;;;;;4.50;4.13;;;21.60;99.90;;;;;;4999824;28;90675;-35
2022/06/08 10:25:40;;;;;;;11.13;4.15;;;21.60;99.90;;;;;;4999673;28;88913;-36
2022/06/08 10:28:31;;;;;;;5.68;3.72;;;21.40;99.90;;;;;;4999717;28;90228;-36
2022/06/08 10:31:04;;;;;;;5.40;3.40;;;21.30;99.90;;;;;;4994120;28;89650;-35
2022/06/08 10:33:32;;;;;;;3.35;3.05;;;21.50;99.90;;;;;;5000215;28;90219;-38
2022/06/08 10:35:59;;;;;;;5.80;3.35;;;21.80;99.90;;;;;;4998902;28;89706;-36
2022/06/08 10:38:27;;;;;;;6.50;4.07;;;21.90;99.90;;;;;;4999463;28;89455;-34
2022/06/08 10:44:31;;;;;;;3.30;3.00;;;22.20;99.90;;;;;;5000265;28;90300;-35
2022/06/08 10:47:27;;;;;;;4.18;3.08;;;22.20;99.90;;;;;;5000022;28;89679;-37
2022/06/08 10:50:00;;;;;;;4.25;3.85;;;21.90;99.90;;;;;;4998876;28;89147;-36
2022/06/08 10:52:47;;;;;;;3.20;2.78;;;21.60;99.90;;;;;;4999136;28;88929;-34
2022/06/08 10:55:18;;;;;;;3.80;2.27;;;22.10;99.90;;;;;;4999236;28;89633;-36
2022/06/08 10:58:06;;;;;;;4.32;2.40;;;22.10;99.90;;;;;;4997766;28;90718;-35
2022/06/08 11:00:58;;;;;;;5.50;3.50;;;22.30;99.90;;;;;;4998787;28;90371;-37
2022/06/08 11:03:47;;;;;;;4.53;3.17;;;22.40;99.90;;;;;;4999711;28;88111;-36
2022/06/08 11:06:45;;;;;;;3.95;3.58;;;22.60;99.90;;;;;;4999317;28;89423;-34
2022/06/08 11:09:21;;;;;;;3.95;2.75;;;22.80;99.90;;;;;;4999058;28;90151;-35
2022/06/08 11:11:50;;;;;;;3.97;3.58;;;22.50;99.90;;;;;;4998760;28;89993;-39
2022/06/08 11:14:26;;;;;;;3.97;3.67;;;22.60;99.90;;;;;;4998685;28;89887;-34
2022/06/08 11:16:53;;;;;;;4.68;4.18;;;22.70;99.90;;;;;;4999296;28;90190;-34
2022/06/08 11:19:19;;;;;;;5.50;4.70;;;22.50;99.90;;;;;;4999637;28;89867;-35
2022/06/08 11:21:54;;;;;;;4.80;4.40;;;22.50;99.90;;;;;;4998541;28;89229;-35
2022/06/08 11:24:35;;;;;;;5.43;4.40;;;22.60;99.90;;;;;;4998484;28;88927;-35
2022/06/08 11:27:01;;;;;;;8.52;5.57;;;22.40;99.90;;;;;;4998716;28;89316;-39
2022/06/08 11:29:29;;;;;;;5.63;4.97;;;22.40;99.90;;;;;;4999174;28;90508;-34
2022/06/08 11:31:56;;;;;;;9.10;4.53;;;22.40;99.90;;;;;;4998491;28;90057;-36
2022/06/08 11:34:23;;;;;;;4.70;4.37;;;22.60;99.90;;;;;;4998431;28;88260;-35
2022/06/08 11:37:26;;;;;;;5.18;4.65;;;22.80;99.90;;;;;;4995829;28;90294;-38
2022/06/08 11:40:13;;;;;;;6.13;4.07;;;23.00;99.90;;;;;;4975902;28;89673;-34
2022/06/08 11:42:51;;;;;;;5.18;4.78;;;22.80;99.90;;;;;;4998468;28;89553;-37
2022/06/08 11:45:21;;;;;;;4.00;3.60;;;22.70;99.90;;;;;;4997155;28;89736;-36
2022/06/08 11:48:08;;;;;;;4.13;3.72;;;22.70;99.90;;;;;;4999706;28;91322;-34
2022/06/08 11:50:53;;;;;;;4.10;3.70;;;22.50;99.90;;;;;;4997810;28;89151;-37
2022/06/08 11:53:39;;;;;;;4.63;4.22;;;22.50;99.90;;;;;;5000169;28;90402;-38
2022/06/08 11:56:34;;;;;;;5.18;3.80;;;22.40;99.90;;;;;;5000285;28;88701;-37
2022/06/08 11:59:02;;;;;;;5.55;3.40;;;22.00;99.90;;;;;;4976871;28;90100;-40
2022/06/08 12:01:42;;;;;;;5.50;3.65;;;21.90;99.90;;;;;;4998903;28;90109;-36
2022/06/08 12:04:14;;;;;;;3.70;3.30;;;21.70;99.90;;;;;;4999743;28;89548;-34
2022/06/08 12:06:43;;;;;;;3.72;3.40;;;21.70;99.90;;;;;;4999674;28;89652;-34
2022/06/08 12:09:16;;;;;;;3.80;3.47;;;21.70;99.90;;;;;;4986999;28;90126;-35
2022/06/08 12:11:46;;;;;;;6.00;4.35;;;21.60;99.90;;;;;;4992666;28;89898;-38
2022/06/08 12:14:29;;;;;;;4.38;3.97;;;21.50;99.90;;;;;;4984936;28;89418;-37
2022/06/08 12:16:54;;;;;;;13.32;5.97;;;21.40;99.90;;;;;;4986492;28;90271;-36
2022/06/08 12:19:22;;;;;;;3.00;2.78;;;21.40;99.90;;;;;;4999454;28;90262;-35
2022/06/08 12:22:05;;;;;;;5.28;2.63;;;21.00;99.90;;;;;;4999706;28;89289;-33
2022/06/08 12:24:31;;;;;;;7.38;3.80;;;20.50;99.90;;;;;;4992523;28;88465;-38
2022/06/08 12:27:13;;;;;;;11.73;4.00;;;19.60;99.90;;;;;;4994371;28;89492;-35
2022/06/08 12:29:48;;;;;;;11.15;3.78;;;19.00;99.90;;;;;;4998514;28;89670;-40
2022/06/08 12:32:24;;;;;;;5.35;3.67;;;18.70;99.90;;;;;;5000143;28;91065;-37
2022/06/08 12:35:07;;;;;;;10.50;4.18;;;18.40;99.90;;;;;;4998748;28;89559;-35
2022/06/08 12:37:44;;;;;;;15.25;3.80;;;18.10;99.90;;;;;;5000115;28;88801;-35
2022/06/08 12:40:15;;;;;;;8.25;4.32;;;17.80;99.90;;;;;;5000578;28;91171;-37
2022/06/08 12:42:49;;;;;;;8.93;4.53;;;17.70;99.90;;;;;;4998627;28;90539;-34
2022/06/08 12:45:37;;;;;;;6.40;3.08;;;17.50;99.90;;;;;;5001374;28;90295;-37
2022/06/08 12:48:40;;;;;;;6.18;3.65;;;17.40;99.90;;;;;;5005929;28;88515;-36
2022/06/08 12:51:24;;;;;;;4.88;4.03;;;17.60;99.90;;;;;;4941734;28;89249;-36
2022/06/08 12:53:50;;;;;;;8.85;3.75;;;17.50;99.90;;;;;;4990670;28;89569;-38
2022/06/08 12:56:18;;;;;;;4.35;3.10;;;17.30;99.90;;;;;;5045957;22;90824;-34
2022/06/08 12:58:47;;;;;;;6.50;2.97;;;17.30;99.90;;;;;;4986957;28;88787;-34
2022/06/08 13:01:13;;;;;;;3.78;3.42;;;17.20;99.90;;;;;;4986383;28;89806;-35
2022/06/08 13:03:41;;;;;;;3.53;3.05;;;17.30;99.90;;;;;;4983533;28;90162;-36
2022/06/08 13:06:07;;;;;;;5.53;3.43;;;17.20;99.90;;;;;;4982658;28;88637;-34
2022/06/08 13:08:33;;;;;;;3.60;2.85;;;17.20;99.90;;;;;;4981848;28;88947;-36
2022/06/08 13:11:04;;;;;;;3.72;3.08;;;17.30;99.90;;;;;;4987560;28;90064;-36
2022/06/08 13:13:32;;;;;;;9.25;3.15;;;17.20;99.90;;;;;;4990246;28;89492;-37
2022/06/08 13:16:00;;;;;;;;;;;17.10;99.90;;;;;;4981387;28;88467;-36